createdAt,value
2023-02-04T00:00:59.081Z,102285.84
2023-02-04T00:03:25.865Z,102325.97
2023-02-04T00:05:52.508Z,102330.38
2023-02-04T00:08:19.135Z,102330.25
2023-02-04T00:10:47.161Z,102223.53
2023-02-04T00:13:13.811Z,102335.44
2023-02-04T00:15:40.416Z,102323.34
2023-02-04T00:18:07.123Z,102360.19
2023-02-04T00:20:33.742Z,102355.63
2023-02-04T00:23:00.407Z,102358.09
2023-02-04T00:25:27.379Z,102359.25
2023-02-04T00:27:55.408Z,102356.31
2023-02-04T00:30:22.062Z,102327.91
2023-02-04T00:32:48.665Z,102361.88
2023-02-04T00:35:15.263Z,102325.91
2023-02-04T00:37:42.147Z,102258.25
2023-02-04T00:40:10.369Z,102367.31
2023-02-04T00:42:38.832Z,102268.75
2023-02-04T00:45:07.881Z,102348.03
2023-02-04T00:47:34.542Z,102372.94
2023-02-04T00:50:01.113Z,102369.41
2023-02-04T00:52:27.960Z,102373.44
2023-02-04T00:54:54.637Z,102330.75
2023-02-04T00:57:22.232Z,102354.22
2023-02-04T00:59:49.004Z,102346.75
2023-02-04T01:02:18.739Z,102342.34
2023-02-04T01:04:45.366Z,102390.44
2023-02-04T01:07:11.934Z,102384.59
2023-02-04T01:09:38.495Z,102351.94
2023-02-04T01:12:05.163Z,102379.09
2023-02-04T01:14:31.705Z,102395.16
2023-02-04T01:16:58.427Z,102402.31
2023-02-04T01:19:27.407Z,102394.53
2023-02-04T01:21:54.224Z,102395.38
2023-02-04T01:24:20.775Z,102398.84
2023-02-04T01:27:06.196Z,102403.09
2023-02-04T01:29:32.845Z,102403.41
2023-02-04T01:31:59.521Z,102401.25
2023-02-04T01:34:27.499Z,102413.78
2023-02-04T01:36:54.172Z,102422.94
2023-02-04T01:39:20.834Z,102433.75
2023-02-04T01:41:47.567Z,102379.25
2023-02-04T01:44:14.347Z,102428.56
2023-02-04T01:46:41.215Z,102417.53
2023-02-04T01:49:11.010Z,102403.94
2023-02-04T01:51:39.465Z,102446.34
2023-02-04T01:54:09.482Z,102439.38
2023-02-04T01:56:36.045Z,102425.81
2023-02-04T01:59:02.743Z,102417.34
2023-02-04T02:01:37.542Z,102450.16
2023-02-04T02:04:04.870Z,102448.41
2023-02-04T02:06:33.592Z,102446.63
2023-02-04T02:09:02.373Z,102454.56
2023-02-04T02:11:29.443Z,102449.38
2023-02-04T02:13:56.258Z,102441.72
2023-02-04T02:16:23.285Z,102440.44
2023-02-04T02:18:50.730Z,102427.38
2023-02-04T02:21:22.205Z,102423.81
2023-02-04T02:23:53.899Z,102464.34
2023-02-04T02:26:22.240Z,102441.50
2023-02-04T02:28:49.566Z,102408.09
2023-02-04T02:31:18.594Z,102462.06
2023-02-04T02:33:45.686Z,102446.28
2023-02-04T02:36:13.303Z,102468.06
2023-02-04T02:38:40.224Z,102462.13
2023-02-04T02:41:08.252Z,102461.19
2023-02-04T02:43:36.506Z,102475.25
2023-02-04T02:46:05.188Z,102430.84
2023-02-04T02:48:32.598Z,102468.28
2023-02-04T02:50:59.246Z,102466.75
2023-02-04T02:53:25.835Z,102453.22
2023-02-04T02:55:53.054Z,102481.22
2023-02-04T02:58:27.965Z,102472.91
2023-02-04T03:00:56.924Z,102496.22
2023-02-04T03:03:27.128Z,102483.38
2023-02-04T03:05:59.355Z,102497.22
2023-02-04T03:08:26.533Z,102477.81
2023-02-04T03:10:53.349Z,102494.91
2023-02-04T03:13:20.923Z,102494.91
2023-02-04T03:15:48.964Z,102460.03
2023-02-04T03:18:18.811Z,102493.53
2023-02-04T03:20:45.890Z,102507.50
2023-02-04T03:23:12.822Z,102484.09
2023-02-04T03:25:41.460Z,102505.59
2023-02-04T03:28:09.155Z,102482.69
2023-02-04T03:30:36.467Z,102510.22
2023-02-04T03:33:04.589Z,102505.13
2023-02-04T03:35:31.122Z,102509.56
2023-02-04T03:37:57.628Z,102512.25
2023-02-04T03:40:24.137Z,102521.84
2023-02-04T03:42:50.661Z,102527.16
2023-02-04T03:45:17.271Z,102494.56
2023-02-04T03:47:43.786Z,102521.97
2023-02-04T03:50:11.640Z,102524.59
2023-02-04T03:52:38.190Z,102520.41
2023-02-04T03:55:05.136Z,102524.81
2023-02-04T03:57:31.834Z,102503.84
2023-02-04T03:59:58.502Z,102534.72
2023-02-04T04:02:25.176Z,102525.94
2023-02-04T04:04:51.761Z,102527.06
2023-02-04T04:07:19.898Z,102529.00
2023-02-04T04:09:46.412Z,102496.00
2023-02-04T04:12:12.964Z,102522.25
2023-02-04T04:14:39.487Z,102537.03
2023-02-04T04:17:06.039Z,102536.97
2023-02-04T04:19:32.598Z,102542.22
2023-02-04T04:21:59.170Z,102483.13
2023-02-04T04:24:27.087Z,102532.75
2023-02-04T04:26:53.772Z,102536.88
2023-02-04T04:29:20.540Z,102539.59
2023-02-04T04:31:47.193Z,102541.47
2023-02-04T04:34:14.069Z,102541.44
2023-02-04T04:36:40.654Z,102548.41
2023-02-04T04:39:07.148Z,102546.47
2023-02-04T04:41:35.130Z,102540.38
2023-02-04T04:44:02.089Z,102537.22
2023-02-04T04:46:28.709Z,102547.38
2023-02-04T04:48:55.255Z,102552.75
2023-02-04T04:51:21.855Z,102554.44
2023-02-04T04:53:48.408Z,102564.88
2023-02-04T04:56:14.985Z,102511.88
2023-02-04T04:58:42.883Z,102573.66
2023-02-04T05:01:09.459Z,102452.44
2023-02-04T05:03:36.057Z,102538.78
2023-02-04T05:06:02.763Z,102584.06
2023-02-04T05:08:29.302Z,102586.69
2023-02-04T05:10:55.866Z,102584.97
2023-02-04T05:13:22.368Z,102583.16
2023-02-04T05:15:50.228Z,102584.00
2023-02-04T05:18:17.030Z,102594.69
2023-02-04T05:20:43.557Z,102592.84
2023-02-04T05:23:10.094Z,102586.69
2023-02-04T05:25:36.663Z,102588.41
2023-02-04T05:28:03.519Z,102551.75
2023-02-04T05:30:30.228Z,102586.88
2023-02-04T05:32:58.549Z,102586.75
2023-02-04T05:35:25.090Z,102590.22
2023-02-04T05:37:51.632Z,102550.28
2023-02-04T05:40:18.492Z,102590.38
2023-02-04T05:42:45.016Z,102599.03
2023-02-04T05:45:15.078Z,102595.63
2023-02-04T05:47:41.814Z,102596.75
2023-02-04T05:50:10.841Z,102602.00
2023-02-04T05:52:37.427Z,102609.88
2023-02-04T05:55:04.908Z,102606.31
2023-02-04T05:57:31.427Z,102617.63
2023-02-04T05:59:58.197Z,102614.94
2023-02-04T06:02:24.852Z,102610.72
2023-02-04T06:04:51.363Z,102620.31
2023-02-04T06:07:19.242Z,102630.03
2023-02-04T06:09:45.775Z,102618.19
2023-02-04T06:12:12.449Z,102628.44
2023-02-04T06:14:39.213Z,102632.06
2023-02-04T06:17:05.763Z,102638.09
2023-02-04T06:19:32.301Z,102640.81
2023-02-04T06:21:58.831Z,102621.97
2023-02-04T06:24:26.758Z,102649.41
2023-02-04T06:26:53.316Z,102575.09
2023-02-04T06:29:19.870Z,102649.44
2023-02-04T06:31:46.636Z,102641.75
2023-02-04T06:34:13.182Z,102650.91
2023-02-04T06:36:39.935Z,102621.91
2023-02-04T06:39:06.619Z,102601.66
2023-02-04T06:41:34.529Z,102662.41
2023-02-04T06:44:01.181Z,102665.97
2023-02-04T06:46:27.772Z,102661.72
2023-02-04T06:48:54.367Z,102547.19
2023-02-04T06:51:20.901Z,102656.66
2023-02-04T06:53:47.748Z,102651.66
2023-02-04T06:56:14.264Z,102677.44
2023-02-04T06:58:42.106Z,102677.13
2023-02-04T07:01:08.915Z,102687.22
2023-02-04T07:03:35.446Z,102683.69
2023-02-04T07:06:01.978Z,102682.03
2023-02-04T07:08:28.565Z,102682.94
2023-02-04T07:10:55.109Z,102686.41
2023-02-04T07:13:21.613Z,102688.25
2023-02-04T07:15:49.552Z,102697.03
2023-02-04T07:18:16.188Z,102694.41
2023-02-04T07:20:42.737Z,102694.19
2023-02-04T07:23:09.253Z,102641.28
2023-02-04T07:25:35.783Z,102693.50
2023-02-04T07:28:02.376Z,102656.31
2023-02-04T07:30:29.362Z,102708.78
2023-02-04T07:32:57.521Z,102703.53
2023-02-04T07:35:24.099Z,102706.00
2023-02-04T07:37:52.772Z,102710.41
2023-02-04T07:40:19.297Z,102712.97
2023-02-04T07:42:45.819Z,102716.47
2023-02-04T07:45:17.130Z,102591.38
2023-02-04T07:47:43.915Z,102664.97
2023-02-04T07:50:11.848Z,102715.41
2023-02-04T07:52:38.469Z,102715.31
2023-02-04T07:55:05.841Z,102724.84
2023-02-04T07:57:32.507Z,102724.72
2023-02-04T07:59:59.055Z,102723.75
2023-02-04T08:02:26.158Z,102728.88
2023-02-04T08:04:53.084Z,102731.31
2023-02-04T08:07:21.073Z,102734.69
2023-02-04T08:09:48.347Z,102746.78
2023-02-04T08:12:14.936Z,102745.75
2023-02-04T08:14:41.458Z,102752.44
2023-02-04T08:17:08.061Z,102747.94
2023-02-04T08:19:34.599Z,102698.19
2023-02-04T08:22:01.285Z,102752.81
2023-02-04T08:24:29.184Z,102751.69
2023-02-04T08:26:55.894Z,102750.72
2023-02-04T08:29:22.484Z,102692.25
2023-02-04T08:31:49.168Z,102695.94
2023-02-04T08:34:15.843Z,102753.06
2023-02-04T08:36:42.710Z,102718.03
2023-02-04T08:39:09.228Z,102757.19
2023-02-04T08:41:37.265Z,102746.44
2023-02-04T08:44:04.313Z,102704.59
2023-02-04T08:46:31.282Z,102751.44
2023-02-04T08:48:57.961Z,102767.75
2023-02-04T08:51:24.670Z,102757.28
2023-02-04T08:53:51.231Z,102770.72
2023-02-04T08:56:17.877Z,102771.22
2023-02-04T08:58:46.285Z,102758.22
2023-02-04T09:01:13.130Z,102773.94
2023-02-04T09:03:39.907Z,102782.47
2023-02-04T09:06:07.203Z,102788.44
2023-02-04T09:08:33.814Z,102742.16
2023-02-04T09:11:00.407Z,102793.53
2023-02-04T09:13:28.216Z,102797.09
2023-02-04T09:15:56.278Z,102795.38
2023-02-04T09:18:23.084Z,102804.66
2023-02-04T09:20:50.337Z,102803.97
2023-02-04T09:23:17.174Z,102795.84
2023-02-04T09:25:45.267Z,102811.03
2023-02-04T09:28:13.320Z,102806.53
2023-02-04T09:30:41.210Z,102812.19
2023-02-04T09:33:11.038Z,102800.88
2023-02-04T09:35:38.039Z,102798.50
2023-02-04T09:38:05.050Z,102817.19
2023-02-04T09:40:34.398Z,102816.25
2023-02-04T09:43:02.919Z,102828.22
2023-02-04T09:45:33.248Z,102829.22
2023-02-04T09:48:02.555Z,102826.44
2023-02-04T09:50:31.918Z,102829.59
2023-02-04T09:53:01.742Z,102831.09
2023-02-04T09:55:31.792Z,102835.09
2023-02-04T09:57:58.299Z,102834.88
2023-02-04T10:00:27.081Z,102844.41
2023-02-04T10:02:53.847Z,102836.00
2023-02-04T10:05:27.182Z,102838.72
2023-02-04T10:07:55.296Z,102840.94
2023-02-04T10:10:24.486Z,102846.47
2023-02-04T10:12:53.243Z,102852.59
2023-02-04T10:15:21.293Z,102833.50
2023-02-04T10:17:50.490Z,102822.19
2023-02-04T10:20:23.533Z,102848.91
2023-02-04T10:22:53.342Z,102848.41
2023-02-04T10:25:23.716Z,102848.03
2023-02-04T10:27:52.128Z,102852.66
2023-02-04T10:30:21.160Z,102848.09
2023-02-04T10:32:48.270Z,102847.28
2023-02-04T10:35:16.724Z,102842.31
2023-02-04T10:37:43.712Z,102848.56
2023-02-04T10:40:27.954Z,102848.22
2023-02-04T10:42:54.664Z,102844.31
2023-02-04T10:45:23.079Z,102841.91
2023-02-04T10:47:51.556Z,102855.59
2023-02-04T10:50:19.731Z,102852.81
2023-02-04T10:52:50.011Z,102852.88
2023-02-04T10:55:18.557Z,102858.88
2023-02-04T10:57:48.721Z,102860.31
2023-02-04T11:00:17.937Z,102854.88
2023-02-04T11:02:48.088Z,102869.09
2023-02-04T11:05:17.845Z,102866.16
2023-02-04T11:07:45.211Z,102851.00
2023-02-04T11:10:14.763Z,102856.13
2023-02-04T11:12:43.047Z,102851.63
2023-02-04T11:15:39.015Z,102849.13
2023-02-04T11:18:08.208Z,102849.00
2023-02-04T11:20:35.528Z,102854.19
2023-02-04T11:23:29.245Z,102841.38
2023-02-04T11:26:03.464Z,102851.84
2023-02-04T11:28:44.528Z,102853.03
2023-02-04T11:31:27.828Z,102844.00
2023-02-04T11:34:24.270Z,102843.81
2023-02-04T11:36:55.785Z,102839.19
2023-02-04T11:39:26.862Z,102807.56
2023-02-04T11:41:53.712Z,102843.44
2023-02-04T11:44:20.508Z,102854.84
2023-02-04T11:46:52.045Z,102853.19
2023-02-04T11:49:20.362Z,102839.47
2023-02-04T11:51:47.058Z,102845.63
2023-02-04T11:54:15.100Z,102856.25
2023-02-04T11:56:42.071Z,102809.03
2023-02-04T11:59:11.126Z,102840.53
2023-02-04T12:01:37.676Z,102843.63
2023-02-04T12:04:08.078Z,102846.53
2023-02-04T12:06:37.158Z,102851.50
2023-02-04T12:09:07.491Z,102853.09
2023-02-04T12:11:34.082Z,102853.84
2023-02-04T12:14:08.222Z,102858.63
2023-02-04T12:16:40.562Z,102853.09
2023-02-04T12:19:08.623Z,102846.97
2023-02-04T12:21:35.204Z,102862.81
2023-02-04T12:24:01.803Z,102864.91
2023-02-04T12:26:28.327Z,102864.66
2023-02-04T12:28:54.881Z,102855.34
2023-02-04T12:31:21.497Z,102849.66
2023-02-04T12:33:48.273Z,102845.94
2023-02-04T12:36:16.170Z,102814.97
2023-02-04T12:38:42.739Z,102844.47
2023-02-04T12:41:09.853Z,102845.38
2023-02-04T12:43:36.485Z,102855.03
2023-02-04T12:46:03.178Z,102859.31
2023-02-04T12:48:30.214Z,102850.94
2023-02-04T12:50:56.857Z,102854.34
2023-02-04T12:53:24.820Z,102863.13
2023-02-04T12:55:51.495Z,102861.28
2023-02-04T12:58:18.117Z,102862.25
2023-02-04T13:00:44.689Z,102865.59
2023-02-04T13:03:11.361Z,102863.66
2023-02-04T13:05:37.885Z,102853.72
2023-02-04T13:08:04.962Z,102852.16
2023-02-04T13:10:32.846Z,102855.97
2023-02-04T13:12:59.540Z,102856.13
2023-02-04T13:15:26.207Z,102861.91
2023-02-04T13:17:53.307Z,102862.22
2023-02-04T13:20:20.096Z,102866.22
2023-02-04T13:22:46.717Z,102858.84
2023-02-04T13:25:13.313Z,102867.38
2023-02-04T13:27:41.325Z,102856.41
2023-02-04T13:30:09.337Z,102872.28
2023-02-04T13:32:35.980Z,102863.06
2023-02-04T13:35:02.763Z,102874.06
2023-02-04T13:37:29.351Z,102863.28
2023-02-04T13:39:55.909Z,102864.03
2023-02-04T13:42:22.524Z,102861.47
2023-02-04T13:44:50.380Z,102866.31
2023-02-04T13:47:17.079Z,102865.22
2023-02-04T13:49:43.603Z,102865.34
2023-02-04T13:52:10.160Z,102863.56
2023-02-04T13:54:36.872Z,102821.88
2023-02-04T13:57:03.569Z,102848.66
2023-02-04T13:59:30.073Z,102843.81
2023-02-04T14:01:58.814Z,102838.97
2023-02-04T14:04:25.427Z,102841.09
2023-02-04T14:06:52.000Z,102848.78
2023-02-04T14:09:18.522Z,102845.81
2023-02-04T14:11:45.104Z,102844.75
2023-02-04T14:14:11.612Z,102836.63
2023-02-04T14:16:38.206Z,102843.50
2023-02-04T14:19:06.487Z,102839.72
2023-02-04T14:21:33.174Z,102846.41
2023-02-04T14:23:59.987Z,102841.47
2023-02-04T14:26:26.650Z,102836.34
2023-02-04T14:28:53.180Z,102845.59
2023-02-04T14:31:19.881Z,102845.81
2023-02-04T14:33:48.039Z,102857.09
2023-02-04T14:36:17.251Z,102852.47
2023-02-04T14:38:43.807Z,102864.03
2023-02-04T14:41:10.460Z,102857.22
2023-02-04T14:43:37.010Z,102853.03
2023-02-04T14:46:05.604Z,102858.53
2023-02-04T14:48:32.667Z,102864.97
2023-02-04T14:50:59.285Z,102840.06
2023-02-04T14:53:27.180Z,102863.56
2023-02-04T14:55:54.057Z,102866.84
2023-02-04T14:58:20.561Z,102866.84
2023-02-04T15:00:47.475Z,102860.63
2023-02-04T15:03:13.978Z,102849.22
2023-02-04T15:05:40.532Z,102867.00
2023-02-04T15:08:07.086Z,102873.94
2023-02-04T15:10:35.393Z,102875.53
2023-02-04T15:13:02.180Z,102877.13
2023-02-04T15:15:28.759Z,102878.78
2023-02-04T15:17:55.301Z,102872.44
2023-02-04T15:20:22.166Z,102874.38
2023-02-04T15:22:48.718Z,102848.03
2023-02-04T15:25:15.474Z,102885.34
2023-02-04T15:27:43.397Z,102877.19
2023-02-04T15:30:10.930Z,102884.25
2023-02-04T15:32:37.412Z,102882.84
2023-02-04T15:35:04.609Z,102885.94
2023-02-04T15:37:31.440Z,102889.69
2023-02-04T15:39:58.137Z,102862.44
2023-02-04T15:42:24.807Z,102881.69
2023-02-04T15:44:52.793Z,102882.75
2023-02-04T15:47:19.285Z,102880.00
2023-02-04T15:49:46.152Z,102898.91
2023-02-04T15:52:24.112Z,102882.78
2023-02-04T15:54:52.318Z,102890.34
2023-02-04T15:57:18.969Z,102897.91
2023-02-04T15:59:45.536Z,102898.41
2023-02-04T16:02:15.785Z,102900.75
2023-02-04T16:04:42.430Z,102848.09
2023-02-04T16:07:08.921Z,102862.28
2023-02-04T16:09:35.760Z,102893.53
2023-02-04T16:12:03.057Z,102897.47
2023-02-04T16:14:29.719Z,102893.47
2023-02-04T16:16:56.320Z,102902.81
2023-02-04T16:19:24.268Z,102904.94
2023-02-04T16:21:50.733Z,102904.75
2023-02-04T16:24:17.260Z,102885.81
2023-02-04T16:26:43.828Z,102907.47
2023-02-04T16:29:10.401Z,102857.28
2023-02-04T16:31:36.913Z,102893.81
2023-02-04T16:34:03.964Z,102913.50
2023-02-04T16:36:31.834Z,102864.34
2023-02-04T16:38:59.933Z,102911.06
2023-02-04T16:41:26.499Z,102865.25
2023-02-04T16:43:53.091Z,102907.47
2023-02-04T16:46:19.622Z,102918.19
2023-02-04T16:48:46.451Z,102929.13
2023-02-04T16:51:15.804Z,102933.81
2023-02-04T16:53:43.724Z,102922.53
2023-02-04T16:56:10.615Z,102927.13
2023-02-04T16:58:37.366Z,102933.47
2023-02-04T17:01:04.103Z,102928.41
2023-02-04T17:03:30.737Z,102929.41
2023-02-04T17:05:57.661Z,102902.25
2023-02-04T17:08:24.510Z,102941.06
2023-02-04T17:10:52.541Z,102942.78
2023-02-04T17:13:19.390Z,102945.13
2023-02-04T17:15:45.920Z,102958.56
2023-02-04T17:18:12.953Z,102957.91
2023-02-04T17:20:39.463Z,102943.81
2023-02-04T17:23:06.055Z,102960.41
2023-02-04T17:25:32.879Z,102967.50
2023-02-04T17:28:01.005Z,102961.44
2023-02-04T17:30:27.704Z,102968.66
2023-02-04T17:32:54.370Z,102962.81
2023-02-04T17:35:20.926Z,102944.16
2023-02-04T17:37:47.505Z,102965.63
2023-02-04T17:40:14.039Z,102970.88
2023-02-04T17:42:41.525Z,102973.50
2023-02-04T17:45:11.075Z,102975.19
2023-02-04T17:47:38.415Z,102975.22
2023-02-04T17:50:07.438Z,102950.41
2023-02-04T17:52:34.445Z,102974.38
2023-02-04T17:55:01.346Z,102936.34
2023-02-04T17:57:28.238Z,102969.03
2023-02-04T17:59:54.723Z,102963.75
2023-02-04T18:02:26.437Z,102947.69
2023-02-04T18:04:55.088Z,102967.59
2023-02-04T18:07:22.564Z,102975.56
2023-02-04T18:09:49.163Z,102972.25
2023-02-04T18:12:18.902Z,102971.28
2023-02-04T18:14:45.622Z,102978.38
2023-02-04T18:17:14.683Z,102970.56
2023-02-04T18:19:43.288Z,102974.16
2023-02-04T18:22:11.696Z,102967.59
2023-02-04T18:24:39.816Z,102975.41
2023-02-04T18:27:16.069Z,102951.66
2023-02-04T18:29:45.071Z,102977.50
2023-02-04T18:32:18.863Z,102932.13
2023-02-04T18:34:49.910Z,102974.22
2023-02-04T18:37:25.886Z,102889.38
2023-02-04T18:39:53.406Z,102983.16
2023-02-04T18:42:24.850Z,102974.56
2023-02-04T18:44:51.667Z,102983.38
2023-02-04T18:47:27.593Z,102979.78
2023-02-04T18:49:55.920Z,102977.22
2023-02-04T18:52:22.755Z,102972.06
2023-02-04T18:54:51.165Z,102966.97
2023-02-04T18:57:35.508Z,102970.47
2023-02-04T19:00:28.393Z,102968.75
2023-02-04T19:02:57.609Z,102967.06
2023-02-04T19:05:36.192Z,102963.69
2023-02-04T19:08:20.741Z,102963.78
2023-02-04T19:10:47.742Z,102967.31
2023-02-04T19:13:18.831Z,102962.19
2023-02-04T19:15:54.169Z,102968.34
2023-02-04T19:18:25.150Z,102952.78
2023-02-04T19:20:53.115Z,102967.59
2023-02-04T19:23:21.974Z,102973.56
2023-02-04T19:25:50.025Z,102978.81
2023-02-04T19:28:26.401Z,102961.50
2023-02-04T19:30:58.491Z,102969.28
2023-02-04T19:33:27.792Z,102975.22
2023-02-04T19:35:55.638Z,102983.03
2023-02-04T19:38:36.588Z,102980.53
2023-02-04T19:41:18.566Z,102988.41
2023-02-04T19:43:45.132Z,102989.25
2023-02-04T19:46:20.808Z,102986.59
2023-02-04T19:48:47.501Z,102991.78
2023-02-04T19:51:31.784Z,102978.59
2023-02-04T19:54:10.527Z,102980.25
2023-02-04T19:56:39.569Z,102975.97
2023-02-04T19:59:22.076Z,102945.81
2023-02-04T20:01:48.871Z,102974.22
2023-02-04T20:04:19.289Z,102936.59
2023-02-04T20:06:48.113Z,102982.25
2023-02-04T20:09:17.158Z,102987.59
2023-02-04T20:12:08.562Z,102989.38
2023-02-04T20:14:47.406Z,102992.00
2023-02-04T20:17:39.152Z,102986.88
2023-02-04T20:20:23.842Z,102989.34
2023-02-04T20:22:54.905Z,102982.66
2023-02-04T20:25:43.437Z,102992.97
2023-02-04T20:28:16.305Z,102999.97
2023-02-04T20:30:43.195Z,102877.88
2023-02-04T20:33:22.865Z,103000.69
2023-02-04T20:36:25.162Z,103004.09
2023-02-04T20:39:13.500Z,102992.88
2023-02-04T20:41:40.190Z,103002.28
2023-02-04T20:44:15.068Z,103004.97
2023-02-04T20:46:41.725Z,103003.28
2023-02-04T20:49:21.790Z,102993.88
2023-02-04T20:51:48.544Z,102997.97
2023-02-04T20:54:17.976Z,103008.44
2023-02-04T20:56:44.698Z,102961.03
2023-02-04T20:59:26.824Z,102997.81
2023-02-04T21:01:53.415Z,102990.06
2023-02-04T21:04:24.423Z,102989.94
2023-02-04T21:06:52.990Z,102992.53
2023-02-04T21:09:24.364Z,102984.59
2023-02-04T21:11:51.277Z,102983.69
2023-02-04T21:14:17.900Z,102987.94
2023-02-04T21:16:44.565Z,102981.91
2023-02-04T21:19:11.147Z,102986.19
2023-02-04T21:21:37.836Z,102954.34
2023-02-04T21:24:05.282Z,102990.41
2023-02-04T21:26:33.392Z,102987.84
2023-02-04T21:29:00.193Z,102970.63
2023-02-04T21:31:26.916Z,102961.13
2023-02-04T21:33:53.435Z,102991.97
2023-02-04T21:36:20.002Z,102998.91
2023-02-04T21:38:46.557Z,102992.84
2023-02-04T21:41:13.690Z,102995.50
2023-02-04T21:43:41.845Z,102996.25
2023-02-04T21:46:08.500Z,103000.66
2023-02-04T21:48:35.261Z,102968.84
2023-02-04T21:51:01.870Z,102997.94
2023-02-04T21:53:28.395Z,102990.16
2023-02-04T21:55:54.965Z,102986.56
2023-02-04T21:58:21.463Z,102991.03
2023-02-04T22:00:49.533Z,102988.41
2023-02-04T22:03:16.108Z,102966.78
2023-02-04T22:05:43.240Z,102993.72
2023-02-04T22:08:10.480Z,102993.66
2023-02-04T22:10:37.375Z,102993.66
2023-02-04T22:13:04.247Z,102997.94
2023-02-04T22:15:31.026Z,102997.16
2023-02-04T22:17:59.112Z,102980.88
2023-02-04T22:20:25.895Z,103004.97
2023-02-04T22:22:52.717Z,103003.13
2023-02-04T22:25:20.993Z,103004.72
2023-02-04T22:27:47.645Z,102993.38
2023-02-04T22:30:16.192Z,102996.09
2023-02-04T22:32:43.026Z,102996.97
2023-02-04T22:35:11.873Z,102993.41
2023-02-04T22:37:40.371Z,102993.41
2023-02-04T22:40:08.769Z,102863.66
2023-02-04T22:42:35.288Z,102943.38
2023-02-04T22:45:02.217Z,102986.25
2023-02-04T22:47:29.021Z,102981.03
2023-02-04T22:49:55.578Z,102991.50
2023-02-04T22:52:23.445Z,102966.19
2023-02-04T22:54:50.082Z,102876.31
2023-02-04T22:57:16.572Z,102949.34
2023-02-04T22:59:43.424Z,102940.69
2023-02-04T23:02:10.087Z,102981.13
2023-02-04T23:04:36.697Z,102976.78
2023-02-04T23:07:03.366Z,102975.84
2023-02-04T23:09:31.588Z,102971.44
2023-02-04T23:11:58.614Z,102972.28
2023-02-04T23:14:25.271Z,102968.66
2023-02-04T23:16:52.009Z,102955.00
2023-02-04T23:19:18.803Z,102969.59
2023-02-04T23:21:45.331Z,102908.56
2023-02-04T23:24:12.250Z,102962.44
2023-02-04T23:26:40.464Z,102955.69
2023-02-04T23:29:07.087Z,102979.03
2023-02-04T23:31:33.608Z,102988.66
2023-02-04T23:34:00.268Z,102988.66
2023-02-04T23:36:26.860Z,102987.78
2023-02-04T23:38:53.770Z,102988.69
2023-02-04T23:41:20.338Z,102992.19
2023-02-04T23:43:48.287Z,102991.31
2023-02-04T23:46:14.847Z,102993.16
2023-02-04T23:48:41.511Z,102994.94
2023-02-04T23:51:08.428Z,102980.94
2023-02-04T23:53:35.283Z,102987.81
2023-02-04T23:56:01.915Z,102978.34
2023-02-04T23:58:28.599Z,102955.34
